Time;durP1;ratioP1;P1;durP2;ratioP2;P2;SDS_P1;SDS_P2;PMS_P1;PMS_P2;Temp;Humidity;BMP_temperature;BMP_pressure;BME280_temperature;BME280_humidity;BME280_pressure;Samples;Min_cycle;Max_cycle;Signal;HPM_P1;HPM_P2
2022/02/06 00:00:59;;;;;;;10.47;7.27;;;;;;;;;;2089204;28;20180;-60
2022/02/06 00:01:59;;;;;;;14.37;7.97;;;;;;;;;;2088280;28;20171;-60
2022/02/06 00:03:00;;;;;;;8.63;7.13;;;;;;;;;;2088468;28;20195;-61
2022/02/06 00:04:00;;;;;;;14.77;8.57;;;;;;;;;;2088015;28;20195;-60
2022/02/06 00:05:00;;;;;;;11.53;7.90;;;;;;;;;;2088092;28;20260;-60
2022/02/06 00:06:01;;;;;;;11.57;8.10;;;;;;;;;;2089695;28;20254;-61
2022/02/06 00:07:02;;;;;;;11.37;7.93;;;;;;;;;;2087889;28;20196;-61
2022/02/06 00:08:08;;;;;;;9.03;7.83;;;;;;;;;;2088596;28;20173;-62
2022/02/06 00:09:08;;;;;;;12.57;7.67;;;;;;;;;;2085171;28;20167;-62
2022/02/06 00:10:09;;;;;;;9.33;8.13;;;;;;;;;;2084705;28;20184;-62
2022/02/06 00:11:09;;;;;;;8.90;7.33;;;;;;;;;;2087837;28;20233;-62
2022/02/06 00:12:09;;;;;;;7.27;6.53;;;;;;;;;;2087639;28;20536;-61
2022/02/06 00:13:10;;;;;;;9.40;6.50;;;;;;;;;;2088869;28;20191;-62
2022/02/06 00:14:10;;;;;;;11.40;7.90;;;;;;;;;;2086717;28;20180;-62
2022/02/06 00:15:10;;;;;;;11.37;7.50;;;;;;;;;;2086993;28;20179;-62
2022/02/06 00:16:10;;;;;;;11.90;7.93;;;;;;;;;;2084843;28;20222;-62
2022/02/06 00:17:11;;;;;;;9.70;7.07;;;;;;;;;;2083441;28;20207;-61
2022/02/06 00:18:11;;;;;;;11.50;8.13;;;;;;;;;;2084594;28;20672;-60
2022/02/06 00:19:11;;;;;;;10.97;8.10;;;;;;;;;;2088370;28;20255;-61
2022/02/06 00:20:11;;;;;;;11.53;6.97;;;;;;;;;;2080137;28;20688;-59
2022/02/06 00:21:15;;;;;;;8.13;6.50;;;;;;;;;;2076868;28;20630;-60
2022/02/06 00:22:27;;;;;;;10.27;6.20;;;;;;;;;;2085799;28;20167;-61
2022/02/06 00:23:30;;;;;;;8.60;7.20;;;;;;;;;;2088407;28;20175;-62
2022/02/06 00:26:07;;;;;;;8.03;7.17;;;;;;;;;;2072755;28;20189;-61
2022/02/06 00:27:12;;;;;;;8.00;6.03;;;;;;;;;;2083693;28;20295;-60
2022/02/06 00:28:40;;;;;;;13.40;6.53;;;;;;;;;;2080265;28;20173;-62
2022/02/06 00:30:16;;;;;;;6.63;6.03;;;;;;;;;;2080825;28;20196;-59
2022/02/06 00:32:04;;;;;;;7.77;5.93;;;;;;;;;;2082789;28;20184;-57
2022/02/06 00:33:19;;;;;;;10.47;7.90;;;;;;;;;;2080217;28;20196;-57
2022/02/06 00:39:08;;;;;;;8.80;6.90;;;;;;;;;;2086735;28;20163;-61
2022/02/06 00:40:09;;;;;;;8.47;7.60;;;;;;;;;;2081981;28;20585;-58
2022/02/06 00:41:14;;;;;;;9.77;7.03;;;;;;;;;;2084086;28;20187;-60
2022/02/06 00:42:14;;;;;;;9.20;7.77;;;;;;;;;;2084566;28;20262;-62
2022/02/06 00:43:14;;;;;;;11.77;7.33;;;;;;;;;;2089330;28;20691;-62
2022/02/06 00:44:15;;;;;;;10.03;7.23;;;;;;;;;;2086760;28;22497;-62
2022/02/06 00:45:15;;;;;;;10.33;7.37;;;;;;;;;;2089089;28;20207;-63
2022/02/06 00:46:17;;;;;;;8.17;7.37;;;;;;;;;;2084742;28;20161;-63
2022/02/06 00:47:17;;;;;;;12.10;7.87;;;;;;;;;;2083994;28;20241;-62
2022/02/06 00:48:26;;;;;;;8.70;5.23;;;;;;;;;;2084761;28;20180;-63
2022/02/06 00:49:28;;;;;;;8.30;6.33;;;;;;;;;;2083971;28;20509;-59
2022/02/06 00:50:30;;;;;;;6.83;6.23;;;;;;;;;;2080667;28;20601;-61
2022/02/06 00:51:40;;;;;;;10.43;6.87;;;;;;;;;;2083221;28;20555;-59
2022/02/06 00:52:51;;;;;;;10.13;7.40;;;;;;;;;;2088891;28;20259;-60
2022/02/06 00:53:52;;;;;;;9.17;6.33;;;;;;;;;;2082966;28;20168;-60
2022/02/06 00:54:52;;;;;;;11.57;7.57;;;;;;;;;;2088391;28;20254;-59
2022/02/06 00:55:52;;;;;;;11.67;6.87;;;;;;;;;;2083324;28;20204;-59
2022/02/06 00:56:53;;;;;;;11.50;6.10;;;;;;;;;;2089225;28;20179;-61
2022/02/06 00:57:53;;;;;;;10.50;6.50;;;;;;;;;;2073541;28;20180;-62
2022/02/06 00:58:53;;;;;;;9.67;6.00;;;;;;;;;;2080540;28;20190;-60
2022/02/06 00:59:53;;;;;;;12.53;6.93;;;;;;;;;;2086180;28;20558;-60
2022/02/06 01:00:54;;;;;;;12.13;7.03;;;;;;;;;;2083869;28;20179;-56
2022/02/06 01:01:54;;;;;;;6.83;6.17;;;;;;;;;;2088326;28;20167;-59
2022/02/06 01:02:54;;;;;;;7.13;6.43;;;;;;;;;;2087669;28;20206;-60
2022/02/06 01:03:54;;;;;;;7.50;6.80;;;;;;;;;;2087286;28;20187;-60
2022/02/06 01:04:54;;;;;;;6.53;5.93;;;;;;;;;;2087987;28;20298;-61
2022/02/06 01:05:55;;;;;;;10.57;7.00;;;;;;;;;;2084520;28;20180;-61
2022/02/06 01:06:55;;;;;;;7.00;6.40;;;;;;;;;;2088682;28;20237;-62
2022/02/06 01:07:55;;;;;;;9.60;6.23;;;;;;;;;;2084785;28;20168;-60
2022/02/06 01:08:56;;;;;;;9.70;6.27;;;;;;;;;;2070970;28;20246;-61
2022/02/06 01:09:56;;;;;;;10.07;6.70;;;;;;;;;;2070617;28;20732;-62
2022/02/06 01:10:56;;;;;;;7.13;5.83;;;;;;;;;;2082339;28;20541;-61
2022/02/06 01:11:57;;;;;;;13.53;6.53;;;;;;;;;;2084031;28;20180;-60
2022/02/06 01:13:11;;;;;;;7.77;5.67;;;;;;;;;;2089213;28;20274;-58
2022/02/06 01:14:27;;;;;;;7.17;6.33;;;;;;;;;;2086927;28;20183;-62
2022/02/06 01:15:33;;;;;;;7.03;5.67;;;;;;;;;;2087598;28;20195;-58
2022/02/06 01:16:46;;;;;;;6.20;4.97;;;;;;;;;;2089188;28;20594;-60
2022/02/06 01:17:55;;;;;;;8.25;5.15;;;;;;;;;;2094291;22;20515;-58
2022/02/06 01:19:04;;;;;;;5.73;5.33;;;;;;;;;;2080744;28;20192;-58
2022/02/06 01:20:15;;;;;;;6.30;5.77;;;;;;;;;;2081696;28;20187;-56
2022/02/06 01:21:26;;;;;;;6.50;5.63;;;;;;;;;;2082800;28;20164;-59
2022/02/06 01:22:29;;;;;;;7.77;5.80;;;;;;;;;;2082161;28;20209;-59
2022/02/06 01:23:48;;;;;;;6.00;5.50;;;;;;;;;;2082118;28;20173;-59
2022/02/06 01:25:12;;;;;;;6.70;5.73;;;;;;;;;;2081933;28;20209;-58
2022/02/06 01:26:26;;;;;;;6.13;5.53;;;;;;;;;;2082047;28;20293;-58
2022/02/06 01:27:37;;;;;;;8.93;5.63;;;;;;;;;;2081634;28;20179;-58
2022/02/06 01:28:43;;;;;;;6.53;5.93;;;;;;;;;;2082285;28;20228;-58
2022/02/06 01:29:53;;;;;;;6.90;5.57;;;;;;;;;;2090017;28;20205;-58
2022/02/06 01:31:07;;;;;;;6.83;5.30;;;;;;;;;;2082155;28;20260;-58
2022/02/06 01:32:12;;;;;;;6.00;5.40;;;;;;;;;;2089562;28;20167;-58
2022/02/06 01:33:22;;;;;;;6.07;5.60;;;;;;;;;;2089795;28;20624;-58
2022/02/06 01:34:39;;;;;;;5.80;5.30;;;;;;;;;;2082833;28;20546;-58
2022/02/06 01:35:51;;;;;;;6.00;5.03;;;;;;;;;;2083007;28;20357;-58
2022/02/06 01:40:28;;;;;;;8.27;5.57;;;;;;;;;;2082664;28;21219;-58
2022/02/06 01:41:32;;;;;;;7.90;5.73;;;;;;;;;;2081528;28;20198;-58
2022/02/06 01:42:47;;;;;;;4.90;4.43;;;;;;;;;;2081823;28;20172;-58
2022/02/06 01:43:57;;;;;;;5.93;5.27;;;;;;;;;;2081557;28;20238;-56
2022/02/06 02:01:39;;;;;;;5.63;4.57;;;;;;;;;;2083470;28;20259;-59
2022/02/06 02:02:59;;;;;;;5.67;5.17;;;;;;;;;;2084191;28;20164;-58
2022/02/06 02:04:11;;;;;;;5.87;5.33;;;;;;;;;;2080492;28;20215;-57
2022/02/06 02:19:43;;;;;;;6.37;5.77;;;;;;;;;;2080484;28;20676;-59
2022/02/06 02:23:56;;;;;;;7.00;4.87;;;;;;;;;;2064442;28;20196;-56
2022/02/06 02:27:20;;;;;;;6.30;5.63;;;;;;;;;;2065602;28;20597;-58
2022/02/06 02:30:20;;;;;;;6.80;5.60;;;;;;;;;;2077243;28;20191;-57
2022/02/06 02:31:23;;;;;;;7.70;5.03;;;;;;;;;;2076690;28;20187;-56
2022/02/06 02:46:09;;;;;;;7.33;4.93;;;;;;;;;;2083582;28;20179;-58
2022/02/06 02:47:20;;;;;;;6.97;5.00;;;;;;;;;;2083245;28;20259;-58
2022/02/06 02:48:22;;;;;;;7.23;5.20;;;;;;;;;;2086419;28;20199;-56
2022/02/06 02:49:26;;;;;;;6.67;5.37;;;;;;;;;;2075926;28;20177;-58
2022/02/06 02:50:26;;;;;;;6.87;4.50;;;;;;;;;;2090734;28;20175;-57
2022/02/06 02:51:31;;;;;;;5.23;4.70;;;;;;;;;;2090666;28;20183;-57
2022/02/06 02:53:57;;;;;;;7.50;5.47;;;;;;;;;;2088540;28;20198;-58
2022/02/06 02:55:16;;;;;;;7.47;5.37;;;;;;;;;;2090429;28;20167;-57
2022/02/06 02:56:34;;;;;;;4.67;4.23;;;;;;;;;;2088449;28;20178;-56
2022/02/06 02:57:44;;;;;;;5.37;4.43;;;;;;;;;;2082481;28;20183;-57
2022/02/06 02:58:52;;;;;;;5.77;5.27;;;;;;;;;;2082701;28;20153;-59
2022/02/06 03:00:06;;;;;;;5.17;4.67;;;;;;;;;;2090978;28;20191;-57
2022/02/06 03:01:23;;;;;;;7.63;4.97;;;;;;;;;;2082797;28;20191;-55
2022/02/06 03:02:24;;;;;;;4.80;4.30;;;;;;;;;;2082517;28;20585;-58
2022/02/06 03:03:31;;;;;;;5.10;4.50;;;;;;;;;;2083668;28;20164;-57
2022/02/06 03:04:32;;;;;;;4.60;4.30;;;;;;;;;;2083500;28;20204;-57
2022/02/06 03:05:32;;;;;;;5.83;5.33;;;;;;;;;;2082695;28;20184;-59
2022/02/06 03:06:33;;;;;;;6.20;4.93;;;;;;;;;;2084302;28;20195;-58
2022/02/06 03:07:33;;;;;;;7.93;4.77;;;;;;;;;;2083651;28;20728;-60
2022/02/06 03:08:34;;;;;;;4.60;4.23;;;;;;;;;;2084975;28;20209;-58
2022/02/06 03:09:39;;;;;;;7.40;4.83;;;;;;;;;;2084300;28;20165;-58
2022/02/06 03:10:39;;;;;;;7.50;5.83;;;;;;;;;;2084617;28;20606;-58
2022/02/06 03:11:40;;;;;;;7.33;5.23;;;;;;;;;;2083836;28;20204;-58
2022/02/06 03:12:46;;;;;;;5.83;3.30;;;;;;;;;;2083564;28;20176;-58
2022/02/06 03:14:07;;;;;;;5.83;5.20;;;;;;;;;;2083041;28;20262;-58
2022/02/06 03:15:21;;;;;;;5.23;4.77;;;;;;;;;;2079567;28;20184;-58
2022/02/06 03:16:27;;;;;;;7.50;4.80;;;;;;;;;;2082552;28;20165;-58
2022/02/06 03:17:44;;;;;;;8.27;5.03;;;;;;;;;;2082606;28;20309;-57
2022/02/06 03:19:54;;;;;;;5.40;4.43;;;;;;;;;;2080499;28;20230;-59
2022/02/06 03:20:55;;;;;;;4.53;4.13;;;;;;;;;;2081902;28;20496;-58
2022/02/06 03:21:55;;;;;;;9.57;5.60;;;;;;;;;;2082479;28;20179;-57
2022/02/06 03:23:00;;;;;;;5.27;4.80;;;;;;;;;;2081855;28;20685;-57
2022/02/06 03:25:20;;;;;;;5.73;5.13;;;;;;;;;;2082583;28;20262;-57
2022/02/06 03:26:22;;;;;;;8.00;5.07;;;;;;;;;;2081736;28;20176;-56
2022/02/06 03:27:22;;;;;;;7.13;4.10;;;;;;;;;;2081419;28;20176;-54
2022/02/06 03:28:23;;;;;;;6.80;5.33;;;;;;;;;;2081507;28;20196;-56
2022/02/06 03:29:24;;;;;;;7.03;4.87;;;;;;;;;;2082159;28;20172;-57
2022/02/06 03:30:29;;;;;;;6.77;4.43;;;;;;;;;;2082092;28;20620;-57
2022/02/06 03:31:29;;;;;;;6.27;4.83;;;;;;;;;;2088913;28;20224;-57
2022/02/06 03:32:30;;;;;;;8.57;4.97;;;;;;;;;;2088807;28;20176;-57
2022/02/06 03:33:30;;;;;;;6.10;5.40;;;;;;;;;;2081368;28;20184;-58
2022/02/06 03:34:30;;;;;;;6.03;5.10;;;;;;;;;;2081741;28;20183;-55
2022/02/06 03:35:30;;;;;;;5.63;4.70;;;;;;;;;;2080988;28;20216;-57
2022/02/06 03:36:31;;;;;;;7.83;5.80;;;;;;;;;;2081187;28;20171;-57
2022/02/06 03:37:31;;;;;;;6.63;5.73;;;;;;;;;;2080972;28;20184;-56
2022/02/06 03:38:32;;;;;;;7.43;5.43;;;;;;;;;;2081657;28;20231;-55
2022/02/06 03:39:35;;;;;;;7.60;5.63;;;;;;;;;;2090710;28;20259;-59
2022/02/06 03:40:44;;;;;;;9.73;6.27;;;;;;;;;;2083114;28;20190;-56
2022/02/06 03:43:06;;;;;;;6.23;5.00;;;;;;;;;;2081368;28;20218;-55
2022/02/06 03:44:19;;;;;;;7.00;5.33;;;;;;;;;;2081184;28;20188;-57
2022/02/06 03:45:21;;;;;;;9.00;5.80;;;;;;;;;;2076943;28;20161;-57
2022/02/06 03:47:33;;;;;;;4.87;4.47;;;;;;;;;;2080587;28;20181;-56
2022/02/06 03:48:45;;;;;;;8.50;6.17;;;;;;;;;;2079232;28;20283;-56
2022/02/06 03:50:54;;;;;;;7.47;5.63;;;;;;;;;;2081280;28;20180;-55
2022/02/06 03:51:54;;;;;;;5.20;4.70;;;;;;;;;;2081157;28;20176;-57
2022/02/06 03:52:54;;;;;;;5.67;4.63;;;;;;;;;;2080716;28;20235;-56
2022/02/06 03:53:55;;;;;;;5.73;5.23;;;;;;;;;;2088412;28;20198;-56
2022/02/06 03:54:55;;;;;;;8.23;5.33;;;;;;;;;;2095283;28;20167;-56
2022/02/06 03:55:57;;;;;;;5.40;4.67;;;;;;;;;;2089341;28;20278;-56
2022/02/06 03:56:59;;;;;;;5.93;5.00;;;;;;;;;;2081040;28;20704;-58
2022/02/06 03:57:59;;;;;;;8.50;5.87;;;;;;;;;;2081001;28;20196;-58
2022/02/06 03:59:00;;;;;;;7.60;4.80;;;;;;;;;;2079307;28;20198;-57
2022/02/06 04:00:01;;;;;;;8.37;5.90;;;;;;;;;;2081348;28;20180;-58
2022/02/06 04:01:01;;;;;;;5.80;5.07;;;;;;;;;;2080672;28;20165;-56
2022/02/06 04:02:02;;;;;;;3.73;3.00;;;;;;;;;;2081952;28;20175;-57
2022/02/06 04:03:03;;;;;;;8.23;5.00;;;;;;;;;;2081116;28;20203;-57
2022/02/06 04:04:04;;;;;;;7.73;5.57;;;;;;;;;;2081254;28;20615;-55
2022/02/06 04:05:04;;;;;;;5.83;5.17;;;;;;;;;;2080764;28;20192;-54
2022/02/06 04:06:04;;;;;;;4.20;4.00;;;;;;;;;;2079877;28;20185;-57
2022/02/06 04:07:08;;;;;;;6.07;5.17;;;;;;;;;;2081659;28;20205;-54
2022/02/06 04:08:08;;;;;;;4.83;3.90;;;;;;;;;;2081023;28;20195;-55
2022/02/06 04:09:15;;;;;;;4.30;3.90;;;;;;;;;;2081142;28;20296;-54
2022/02/06 04:10:17;;;;;;;5.60;4.33;;;;;;;;;;2081278;28;20172;-54
2022/02/06 04:11:25;;;;;;;7.17;4.00;;;;;;;;;;2080799;28;20178;-54
2022/02/06 04:12:26;;;;;;;5.10;4.60;;;;;;;;;;2079763;28;20214;-55
2022/02/06 04:13:27;;;;;;;4.67;4.33;;;;;;;;;;2078564;28;20188;-57
2022/02/06 04:14:31;;;;;;;7.13;5.13;;;;;;;;;;2081054;28;20591;-56
2022/02/06 04:15:39;;;;;;;6.57;4.30;;;;;;;;;;2081463;28;20618;-56
2022/02/06 04:16:48;;;;;;;5.87;5.37;;;;;;;;;;2081095;28;20673;-56
2022/02/06 04:18:11;;;;;;;4.67;4.07;;;;;;;;;;2079908;28;20211;-58
2022/02/06 04:19:20;;;;;;;5.57;4.50;;;;;;;;;;2081467;28;20195;-55
2022/02/06 04:20:21;;;;;;;4.07;3.53;;;;;;;;;;2080755;28;20262;-55
2022/02/06 04:21:21;;;;;;;5.17;4.77;;;;;;;;;;2081186;28;20176;-57
2022/02/06 04:22:22;;;;;;;4.47;4.07;;;;;;;;;;2081093;28;20184;-55
2022/02/06 04:23:23;;;;;;;5.60;5.20;;;;;;;;;;2081832;28;20200;-54
2022/02/06 04:24:24;;;;;;;4.83;4.40;;;;;;;;;;2081262;28;20563;-54
2022/02/06 04:25:25;;;;;;;5.70;5.10;;;;;;;;;;2080993;28;20259;-55
2022/02/06 04:26:26;;;;;;;5.30;4.90;;;;;;;;;;2081392;28;20691;-55
2022/02/06 04:27:26;;;;;;;6.87;5.27;;;;;;;;;;2079510;28;20176;-56
2022/02/06 04:28:27;;;;;;;5.03;4.53;;;;;;;;;;2081463;28;20184;-57
2022/02/06 04:29:27;;;;;;;9.07;5.77;;;;;;;;;;2081305;28;20176;-55
2022/02/06 04:30:27;;;;;;;5.97;5.47;;;;;;;;;;2081814;28;20192;-54
2022/02/06 04:31:28;;;;;;;5.37;4.97;;;;;;;;;;2080483;28;20246;-57
2022/02/06 04:32:28;;;;;;;8.53;5.40;;;;;;;;;;2080281;28;20199;-56
2022/02/06 04:33:28;;;;;;;8.83;5.33;;;;;;;;;;2080750;28;20170;-53
2022/02/06 04:34:29;;;;;;;6.67;4.43;;;;;;;;;;2081380;28;20553;-57
2022/02/06 04:35:34;;;;;;;7.13;5.40;;;;;;;;;;2079762;28;20212;-54
2022/02/06 04:36:43;;;;;;;7.27;5.23;;;;;;;;;;2082017;28;20577;-58
2022/02/06 04:38:22;;;;;;;6.77;4.33;;;;;;;;;;2080721;28;20644;-59
2022/02/06 04:40:36;;;;;;;6.13;5.10;;;;;;;;;;2076982;28;20264;-56
2022/02/06 04:41:57;;;;;;;8.50;5.33;;;;;;;;;;2072877;28;20714;-54
2022/02/06 04:44:43;;;;;;;7.40;5.57;;;;;;;;;;2080475;28;20200;-54
2022/02/06 04:49:55;;;;;;;6.60;4.70;;;;;;;;;;2082392;28;20187;-56
2022/02/06 05:15:16;;;;;;;7.70;4.80;;;;;;;;;;2082209;28;20199;-55
2022/02/06 05:16:43;;;;;;;6.80;4.17;;;;;;;;;;2074445;28;20166;-58
2022/02/06 05:19:30;;;;;;;5.50;4.90;;;;;;;;;;2082312;28;20152;-57
2022/02/06 05:30:12;;;;;;;5.03;3.97;;;;;;;;;;2066568;28;20209;-54
2022/02/06 05:31:13;;;;;;;5.47;3.77;;;;;;;;;;2082614;28;20841;-60
2022/02/06 05:33:17;;;;;;;4.60;3.50;;;;;;;;;;2080296;28;20168;-58
2022/02/06 05:34:17;;;;;;;4.40;3.43;;;;;;;;;;2084499;28;20264;-57
2022/02/06 05:35:18;;;;;;;3.47;3.13;;;;;;;;;;2084606;28;20184;-55
2022/02/06 05:36:18;;;;;;;5.78;3.88;;;;;;;;;;2084815;28;20203;-56
2022/02/06 05:37:19;;;;;;;3.47;3.00;;;;;;;;;;2084016;28;20183;-59
2022/02/06 05:38:19;;;;;;;4.90;4.00;;;;;;;;;;2084937;28;20218;-57
2022/02/06 05:39:19;;;;;;;3.50;3.20;;;;;;;;;;2101085;28;20233;-59
2022/02/06 05:40:20;;;;;;;3.80;3.40;;;;;;;;;;2092746;28;20184;-56
2022/02/06 05:41:20;;;;;;;7.00;4.07;;;;;;;;;;2083779;28;20579;-57
2022/02/06 05:42:21;;;;;;;6.32;3.72;;;;;;;;;;2085095;28;20194;-56
2022/02/06 05:43:21;;;;;;;5.00;3.47;;;;;;;;;;2084895;28;20173;-57
2022/02/06 05:44:21;;;;;;;4.23;3.60;;;;;;;;;;2083056;28;20631;-57
2022/02/06 05:45:22;;;;;;;8.30;3.53;;;;;;;;;;2083906;28;20211;-58
2022/02/06 05:46:22;;;;;;;3.30;3.10;;;;;;;;;;2083243;28;20272;-54
2022/02/06 05:47:23;;;;;;;3.40;3.10;;;;;;;;;;2082519;28;20188;-54
2022/02/06 05:48:23;;;;;;;4.90;3.63;;;;;;;;;;2078269;28;20196;-55
2022/02/06 05:49:24;;;;;;;5.60;3.50;;;;;;;;;;2080721;28;20651;-56
2022/02/06 05:50:24;;;;;;;3.80;3.13;;;;;;;;;;2083688;28;20173;-56
2022/02/06 05:51:24;;;;;;;6.78;3.20;;;;;;;;;;2083308;28;20178;-57
2022/02/06 05:52:25;;;;;;;4.07;3.70;;;;;;;;;;2082934;28;20169;-56
2022/02/06 05:53:26;;;;;;;3.45;3.15;;;;;;;;;;2083188;28;20673;-55
2022/02/06 05:54:26;;;;;;;3.80;3.50;;;;;;;;;;2083656;28;20204;-60
2022/02/06 05:55:27;;;;;;;4.50;3.60;;;;;;;;;;2081326;28;20164;-59
2022/02/06 05:56:27;;;;;;;3.20;3.00;;;;;;;;;;2077827;28;20177;-56
2022/02/06 05:57:27;;;;;;;5.13;3.40;;;;;;;;;;2077227;28;20188;-55
2022/02/06 05:58:28;;;;;;;5.43;2.90;;;;;;;;;;2075427;28;20205;-58
2022/02/06 05:59:28;;;;;;;4.22;3.20;;;;;;;;;;2080899;28;20238;-57
2022/02/06 06:00:28;;;;;;;3.60;3.30;;;;;;;;;;2080134;28;20180;-56
2022/02/06 06:01:30;;;;;;;5.23;3.07;;;;;;;;;;2091145;28;20186;-59
2022/02/06 06:02:31;;;;;;;6.20;3.38;;;;;;;;;;2090130;28;20221;-58
2022/02/06 06:03:31;;;;;;;3.23;3.03;;;;;;;;;;2082803;28;20236;-58
2022/02/06 06:04:31;;;;;;;4.67;3.33;;;;;;;;;;2081445;28;20245;-59
2022/02/06 06:05:32;;;;;;;2.30;1.70;;;;;;;;;;2084631;28;20605;-58
2022/02/06 06:06:35;;;;;;;3.93;3.53;;;;;;;;;;2091095;28;20211;-55
2022/02/06 06:07:40;;;;;;;5.65;3.40;;;;;;;;;;2089763;28;20183;-56
2022/02/06 06:08:40;;;;;;;2.50;2.40;;;;;;;;;;2082387;28;20230;-57
2022/02/06 06:09:40;;;;;;;4.73;3.30;;;;;;;;;;2089106;28;20236;-54
2022/02/06 06:10:42;;;;;;;3.35;3.13;;;;;;;;;;2082563;28;20727;-58
2022/02/06 06:11:42;;;;;;;3.22;3.00;;;;;;;;;;2082432;28;20295;-56
2022/02/06 06:12:42;;;;;;;3.83;2.47;;;;;;;;;;2075270;28;20848;-58
2022/02/06 06:13:43;;;;;;;3.50;3.20;;;;;;;;;;2082920;28;20346;-57
2022/02/06 06:14:46;;;;;;;3.83;3.50;;;;;;;;;;2081177;28;20168;-55
2022/02/06 06:15:46;;;;;;;3.83;3.00;;;;;;;;;;2079066;28;20565;-59
2022/02/06 06:16:47;;;;;;;2.70;2.57;;;;;;;;;;2074747;28;20181;-59
2022/02/06 06:17:47;;;;;;;3.80;3.20;;;;;;;;;;2081870;28;20203;-58
2022/02/06 06:18:47;;;;;;;3.57;3.37;;;;;;;;;;2081839;28;20165;-57
2022/02/06 06:19:48;;;;;;;3.90;3.43;;;;;;;;;;2081560;28;20820;-59
2022/02/06 06:20:50;;;;;;;4.27;3.27;;;;;;;;;;2073787;28;20559;-57
2022/02/06 06:21:55;;;;;;;3.87;3.27;;;;;;;;;;2075207;28;20235;-58
2022/02/06 06:22:56;;;;;;;3.90;3.27;;;;;;;;;;2077469;28;20734;-58
2022/02/06 06:23:56;;;;;;;3.30;3.00;;;;;;;;;;2081237;28;20203;-57
2022/02/06 06:25:01;;;;;;;4.23;3.10;;;;;;;;;;2081579;28;20235;-59
2022/02/06 06:26:01;;;;;;;4.70;3.40;;;;;;;;;;2080085;28;20678;-56
2022/02/06 06:27:01;;;;;;;3.03;2.83;;;;;;;;;;2075717;28;20185;-57
2022/02/06 06:28:02;;;;;;;4.40;3.40;;;;;;;;;;2080875;28;20196;-57
2022/02/06 06:29:02;;;;;;;3.17;2.97;;;;;;;;;;2081286;28;20691;-56
2022/02/06 06:30:04;;;;;;;5.57;3.23;;;;;;;;;;2080162;28;20190;-57
2022/02/06 06:31:04;;;;;;;2.73;2.53;;;;;;;;;;2078939;28;20180;-58
2022/02/06 06:32:05;;;;;;;3.37;3.17;;;;;;;;;;2076630;28;20651;-58
2022/02/06 06:33:05;;;;;;;3.63;3.40;;;;;;;;;;2082278;28;20280;-57
2022/02/06 06:34:06;;;;;;;4.67;3.70;;;;;;;;;;2079671;28;20258;-58
2022/02/06 06:35:06;;;;;;;4.37;3.70;;;;;;;;;;2078676;28;20645;-59
2022/02/06 06:36:07;;;;;;;3.50;3.30;;;;;;;;;;2079212;28;20258;-58
2022/02/06 06:37:07;;;;;;;4.30;3.83;;;;;;;;;;2081395;28;20172;-58
2022/02/06 06:38:08;;;;;;;3.23;2.93;;;;;;;;;;2077940;28;20247;-56
2022/02/06 06:39:09;;;;;;;4.43;4.07;;;;;;;;;;2076570;28;20187;-57
2022/02/06 06:40:10;;;;;;;3.80;3.50;;;;;;;;;;2081625;28;20180;-58
2022/02/06 06:41:10;;;;;;;3.90;3.47;;;;;;;;;;2080601;28;20188;-59
2022/02/06 06:42:11;;;;;;;3.73;3.43;;;;;;;;;;2082509;28;20171;-57
2022/02/06 06:43:11;;;;;;;5.03;3.63;;;;;;;;;;2079001;28;20270;-58
2022/02/06 06:44:11;;;;;;;4.23;3.83;;;;;;;;;;2078061;28;20263;-58
2022/02/06 06:45:11;;;;;;;3.67;2.97;;;;;;;;;;2081077;28;20589;-57
2022/02/06 06:46:12;;;;;;;4.30;3.90;;;;;;;;;;2082423;28;20185;-59
2022/02/06 06:47:12;;;;;;;4.07;3.77;;;;;;;;;;2081390;28;20178;-55
2022/02/06 06:48:13;;;;;;;3.83;3.53;;;;;;;;;;2081306;28;20297;-57
2022/02/06 06:49:13;;;;;;;3.93;3.60;;;;;;;;;;2077419;28;20208;-57
2022/02/06 06:50:13;;;;;;;5.23;3.70;;;;;;;;;;2080588;28;20176;-57
2022/02/06 06:51:14;;;;;;;3.87;3.57;;;;;;;;;;2081961;28;20217;-56
2022/02/06 06:52:14;;;;;;;4.87;4.07;;;;;;;;;;2081833;28;20172;-59
2022/02/06 06:53:15;;;;;;;5.30;3.87;;;;;;;;;;2080971;28;20854;-59
2022/02/06 06:54:20;;;;;;;5.27;3.87;;;;;;;;;;2080395;28;20684;-57
2022/02/06 06:55:21;;;;;;;4.30;3.90;;;;;;;;;;2081249;28;20184;-59
2022/02/06 06:56:32;;;;;;;4.30;3.80;;;;;;;;;;2081530;28;20178;-58
2022/02/06 06:57:39;;;;;;;5.07;4.17;;;;;;;;;;2074998;28;20168;-58
2022/02/06 06:58:49;;;;;;;4.70;3.70;;;;;;;;;;2089387;28;20164;-54
2022/02/06 07:02:17;;;;;;;3.67;3.30;;;;;;;;;;2079529;28;20195;-57
2022/02/06 07:03:17;;;;;;;4.23;3.17;;;;;;;;;;2074137;28;20215;-58
2022/02/06 07:04:17;;;;;;;4.00;3.70;;;;;;;;;;2073486;28;20173;-57
2022/02/06 07:05:18;;;;;;;4.00;3.67;;;;;;;;;;2081067;28;20204;-59
2022/02/06 07:06:18;;;;;;;4.30;3.90;;;;;;;;;;2077583;28;20192;-57
2022/02/06 07:07:18;;;;;;;3.90;3.70;;;;;;;;;;2080396;28;20184;-59
2022/02/06 07:08:19;;;;;;;4.87;3.83;;;;;;;;;;2080690;28;20213;-58
2022/02/06 07:09:19;;;;;;;4.07;3.77;;;;;;;;;;2081865;28;20189;-58
2022/02/06 07:10:20;;;;;;;4.07;3.77;;;;;;;;;;2078978;28;20204;-58
2022/02/06 07:11:20;;;;;;;4.20;3.87;;;;;;;;;;2077555;28;20183;-55
2022/02/06 07:12:20;;;;;;;4.10;3.80;;;;;;;;;;2078560;28;20172;-56
2022/02/06 07:13:21;;;;;;;5.15;3.22;;;;;;;;;;2082221;28;20590;-55
2022/02/06 07:14:21;;;;;;;3.67;3.13;;;;;;;;;;2081744;28;20259;-56
2022/02/06 07:15:21;;;;;;;3.77;3.47;;;;;;;;;;2081559;28;20180;-55
2022/02/06 07:16:22;;;;;;;5.67;3.67;;;;;;;;;;2082065;28;20180;-56
2022/02/06 07:17:22;;;;;;;4.27;3.87;;;;;;;;;;2080278;28;20176;-57
2022/02/06 07:19:29;;;;;;;4.50;4.10;;;;;;;;;;2073363;28;20208;-59
2022/02/06 07:20:32;;;;;;;4.00;3.70;;;;;;;;;;2075098;28;20633;-61
2022/02/06 07:21:35;;;;;;;3.47;3.27;;;;;;;;;;2083904;28;20230;-60
2022/02/06 07:22:37;;;;;;;6.55;4.18;;;;;;;;;;2088200;28;20287;-56
2022/02/06 07:23:37;;;;;;;4.40;3.50;;;;;;;;;;2081052;28;20176;-63
2022/02/06 07:24:37;;;;;;;4.82;3.45;;;;;;;;;;2081472;28;20273;-63
2022/02/06 07:25:40;;;;;;;6.40;4.35;;;;;;;;;;2097571;28;20702;-63
2022/02/06 07:26:42;;;;;;;4.40;3.57;;;;;;;;;;2097246;28;21016;-62
2022/02/06 07:27:47;;;;;;;5.60;4.03;;;;;;;;;;2081609;28;20188;-60
2022/02/06 07:28:49;;;;;;;4.30;3.90;;;;;;;;;;2079434;28;20200;-61
2022/02/06 07:29:50;;;;;;;3.77;3.57;;;;;;;;;;2082255;28;20628;-61
2022/02/06 07:30:52;;;;;;;4.60;4.20;;;;;;;;;;2082664;28;20180;-61
2022/02/06 07:31:54;;;;;;;5.35;4.20;;;;;;;;;;2086296;28;20192;-62
2022/02/06 07:32:55;;;;;;;5.20;3.67;;;;;;;;;;2090680;28;20183;-60
2022/02/06 07:33:55;;;;;;;5.23;4.73;;;;;;;;;;2089729;28;20735;-56
2022/02/06 07:34:55;;;;;;;4.53;4.20;;;;;;;;;;2089580;28;20175;-60
2022/02/06 07:35:56;;;;;;;4.47;4.07;;;;;;;;;;2088834;28;20211;-59
2022/02/06 07:36:56;;;;;;;4.73;4.33;;;;;;;;;;2097364;28;20171;-58
2022/02/06 07:37:57;;;;;;;5.50;5.00;;;;;;;;;;2086923;28;20198;-59
2022/02/06 07:38:57;;;;;;;5.17;4.63;;;;;;;;;;2085658;28;20196;-62
2022/02/06 07:39:57;;;;;;;5.33;4.77;;;;;;;;;;2084281;28;20172;-59
2022/02/06 07:40:58;;;;;;;5.30;4.10;;;;;;;;;;2089648;28;20640;-59
2022/02/06 07:41:58;;;;;;;4.93;4.43;;;;;;;;;;2088476;28;20188;-55
2022/02/06 07:43:00;;;;;;;4.70;4.30;;;;;;;;;;2088462;28;20168;-59
2022/02/06 07:44:10;;;;;;;5.63;4.53;;;;;;;;;;2085321;28;20186;-60
2022/02/06 07:45:11;;;;;;;4.90;4.50;;;;;;;;;;2084011;28;20172;-58
2022/02/06 07:46:14;;;;;;;4.57;3.47;;;;;;;;;;2097026;28;20196;-63
2022/02/06 07:47:19;;;;;;;4.03;3.80;;;;;;;;;;2096142;28;20174;-61
2022/02/06 07:48:19;;;;;;;5.00;4.60;;;;;;;;;;2086247;28;20217;-64
2022/02/06 07:49:19;;;;;;;5.20;4.80;;;;;;;;;;2102513;28;20190;-64
2022/02/06 07:50:20;;;;;;;5.10;4.60;;;;;;;;;;2098123;28;20557;-61
2022/02/06 07:51:20;;;;;;;5.10;4.60;;;;;;;;;;2085139;28;20258;-55
2022/02/06 07:52:21;;;;;;;8.23;4.63;;;;;;;;;;2083714;28;20180;-55
2022/02/06 07:53:21;;;;;;;5.77;5.20;;;;;;;;;;2084407;28;20221;-58
2022/02/06 07:54:22;;;;;;;5.40;5.00;;;;;;;;;;2077484;28;20209;-53
2022/02/06 07:55:22;;;;;;;6.63;5.47;;;;;;;;;;2094199;28;20178;-57
2022/02/06 07:56:22;;;;;;;5.00;4.60;;;;;;;;;;2075321;28;20227;-55
2022/02/06 07:57:23;;;;;;;4.77;4.43;;;;;;;;;;2071694;28;20758;-62
2022/02/06 07:58:23;;;;;;;7.50;4.23;;;;;;;;;;2086720;28;20176;-60
2022/02/06 07:59:23;;;;;;;4.77;4.40;;;;;;;;;;2089197;28;20191;-54
2022/02/06 08:00:23;;;;;;;5.03;4.50;;;;;;;;;;2089276;28;20543;-59
2022/02/06 08:01:24;;;;;;;5.07;3.73;;;;;;;;;;2088951;28;20593;-61
2022/02/06 08:02:24;;;;;;;4.82;4.43;;;;;;;;;;2088085;28;20183;-62
2022/02/06 08:03:26;;;;;;;4.53;4.17;;;;;;;;;;2089424;28;20155;-60
2022/02/06 08:04:27;;;;;;;5.20;4.40;;;;;;;;;;2088801;28;20244;-62
2022/02/06 08:05:29;;;;;;;4.10;3.80;;;;;;;;;;2088978;28;20175;-62
2022/02/06 08:06:29;;;;;;;4.40;4.00;;;;;;;;;;2082707;28;20176;-62
2022/02/06 08:07:31;;;;;;;4.20;3.90;;;;;;;;;;2086912;28;20237;-66
2022/02/06 08:08:31;;;;;;;4.50;4.07;;;;;;;;;;2089334;28;20168;-63
2022/02/06 08:10:38;;;;;;;4.40;4.00;;;;;;;;;;2087984;28;20187;-60
2022/02/06 08:11:44;;;;;;;4.10;3.72;;;;;;;;;;2087364;28;20581;-59
2022/02/06 08:12:52;;;;;;;3.97;3.63;;;;;;;;;;2081152;28;20148;-59
2022/02/06 08:13:56;;;;;;;5.03;4.57;;;;;;;;;;2088982;28;20211;-60
2022/02/06 08:14:59;;;;;;;4.70;4.30;;;;;;;;;;2096692;28;20183;-55
2022/02/06 08:16:00;;;;;;;4.00;3.80;;;;;;;;;;2095808;28;20203;-59
2022/02/06 08:17:00;;;;;;;4.07;3.77;;;;;;;;;;2089200;28;20641;-55